Time;durP1;ratioP1;P1;durP2;ratioP2;P2;SDS_P1;SDS_P2;PMS_P1;PMS_P2;Temp;Humidity;BMP_temperature;BMP_pressure;BME280_temperature;BME280_humidity;BME280_pressure;Samples;Min_cycle;Max_cycle;Signal;HPM_P1;HPM_P2
2022/08/30 00:03:53;;;;;;;1.77;0.35;;;16.90;91.60;;;;;;10459975;28;20052;-66
2022/08/30 00:08:56;;;;;;;4.13;0.40;;;16.80;91.70;;;;;;10433912;28;20139;-66
2022/08/30 00:13:57;;;;;;;3.58;0.60;;;16.80;92.00;;;;;;10451997;28;20058;-66
2022/08/30 00:19:00;;;;;;;0.93;0.60;;;16.70;92.30;;;;;;10463652;28;20067;-66
2022/08/30 00:24:03;;;;;;;2.40;0.40;;;16.60;92.90;;;;;;10457241;28;20048;-66
2022/08/30 00:29:05;;;;;;;2.92;0.50;;;16.50;93.10;;;;;;10456878;28;20535;-66
2022/08/30 00:34:07;;;;;;;6.15;0.60;;;16.40;93.10;;;;;;10451989;28;20052;-66
2022/08/30 00:39:08;;;;;;;1.95;0.43;;;16.30;93.50;;;;;;10438729;28;20540;-66
2022/08/30 00:44:10;;;;;;;2.15;0.30;;;16.30;93.80;;;;;;10460810;28;20075;-66
2022/08/30 00:49:13;;;;;;;2.95;0.40;;;16.10;94.00;;;;;;10455464;28;20106;-66
2022/08/30 00:54:15;;;;;;;2.33;0.35;;;16.00;94.30;;;;;;10451493;28;20048;-66
2022/08/30 00:59:20;;;;;;;2.15;0.30;;;16.00;94.50;;;;;;10452686;28;20047;-66
2022/08/30 01:04:24;;;;;;;3.25;0.32;;;15.90;94.80;;;;;;10454841;28;20052;-66
2022/08/30 01:09:26;;;;;;;5.10;0.30;;;15.90;95.00;;;;;;10450431;28;20056;-66
2022/08/30 01:14:28;;;;;;;4.03;0.45;;;15.90;95.60;;;;;;10456400;28;20453;-66
2022/08/30 01:20:00;;;;;;;0.70;0.30;;;15.90;95.60;;;;;;10454843;28;20099;-66
2022/08/30 01:25:05;;;;;;;1.48;0.63;;;15.90;96.00;;;;;;10455215;28;20053;-65
2022/08/30 01:30:10;;;;;;;0.93;0.30;;;15.80;96.30;;;;;;10453881;28;20047;-63
2022/08/30 01:35:16;;;;;;;0.60;0.22;;;15.80;96.50;;;;;;10459886;28;20036;-63
2022/08/30 01:40:18;;;;;;;2.63;0.63;;;15.70;96.60;;;;;;10447331;28;20052;-63
2022/08/30 01:45:20;;;;;;;7.00;0.50;;;15.70;96.90;;;;;;10456109;28;20047;-63
2022/08/30 01:50:22;;;;;;;5.35;0.80;;;15.60;97.20;;;;;;10457504;28;20052;-63
2022/08/30 01:55:24;;;;;;;1.75;0.50;;;15.60;97.60;;;;;;10449936;28;20495;-63
2022/08/30 02:00:25;;;;;;;1.05;0.40;;;15.50;97.80;;;;;;10451315;28;20388;-63
2022/08/30 02:05:27;;;;;;;1.33;0.45;;;15.40;98.50;;;;;;10453884;28;20174;-63
2022/08/30 02:10:29;;;;;;;2.55;0.63;;;15.40;98.60;;;;;;10441559;28;20052;-63
2022/08/30 02:15:31;;;;;;;3.13;0.55;;;15.40;99.20;;;;;;10441497;28;20040;-63
2022/08/30 02:20:42;;;;;;;3.42;0.63;;;15.30;99.40;;;;;;10448148;28;20509;-63
2022/08/30 02:25:45;;;;;;;3.13;0.50;;;15.30;99.80;;;;;;10454931;28;20518;-63
2022/08/30 02:30:47;;;;;;;2.10;0.40;;;15.20;99.90;;;;;;10444931;28;20052;-63
2022/08/30 02:35:49;;;;;;;2.80;0.88;;;15.10;99.90;;;;;;10450593;28;20044;-63
2022/08/30 02:40:51;;;;;;;2.28;0.35;;;15.10;99.90;;;;;;10457998;28;20105;-63
2022/08/30 02:45:52;;;;;;;3.80;0.50;;;15.00;99.90;;;;;;10455065;28;20057;-63
2022/08/30 02:50:54;;;;;;;2.67;0.50;;;15.00;99.90;;;;;;10444595;28;20135;-63
2022/08/30 02:55:56;;;;;;;3.53;0.40;;;15.00;99.90;;;;;;10454972;28;20067;-63
2022/08/30 03:00:58;;;;;;;1.88;0.60;;;15.00;99.90;;;;;;10442317;28;20059;-63
2022/08/30 03:06:02;;;;;;;1.98;0.40;;;14.90;99.90;;;;;;10451801;28;20036;-63
2022/08/30 03:11:04;;;;;;;3.38;0.50;;;14.90;99.90;;;;;;10450336;28;20049;-63
2022/08/30 03:16:06;;;;;;;1.83;0.40;;;14.80;99.90;;;;;;10452937;28;20064;-63
2022/08/30 03:21:10;;;;;;;1.63;0.50;;;14.80;99.90;;;;;;10448045;28;20128;-63
2022/08/30 03:26:13;;;;;;;2.15;0.40;;;14.70;99.90;;;;;;10444256;28;20438;-64
2022/08/30 03:31:15;;;;;;;1.38;0.40;;;14.60;99.90;;;;;;10437008;28;20190;-63
2022/08/30 03:36:17;;;;;;;2.10;0.40;;;14.60;99.90;;;;;;10460298;28;20040;-63
2022/08/30 03:41:18;;;;;;;1.05;0.70;;;14.50;99.90;;;;;;10459283;28;20512;-63
2022/08/30 03:46:20;;;;;;;2.60;0.55;;;14.40;99.90;;;;;;10447660;28;20040;-63
2022/08/30 03:51:29;;;;;;;4.90;0.40;;;14.30;99.90;;;;;;10456164;28;20106;-63
2022/08/30 03:56:31;;;;;;;2.25;0.55;;;14.30;99.90;;;;;;10454966;28;20103;-63
2022/08/30 04:01:32;;;;;;;5.40;0.90;;;14.20;99.90;;;;;;10411821;28;20045;-63
2022/08/30 04:06:34;;;;;;;2.92;0.60;;;14.10;99.90;;;;;;10450498;28;20131;-63
2022/08/30 04:11:36;;;;;;;1.50;0.45;;;14.00;99.90;;;;;;10454465;28;21560;-62
2022/08/30 04:16:38;;;;;;;3.92;0.80;;;14.10;99.90;;;;;;10445807;28;20049;-63
2022/08/30 04:21:40;;;;;;;2.97;0.65;;;14.10;99.90;;;;;;10456432;28;20403;-62
2022/08/30 04:26:43;;;;;;;3.47;0.55;;;14.10;99.90;;;;;;10459148;28;20502;-62
2022/08/30 04:31:45;;;;;;;2.92;0.80;;;14.00;99.90;;;;;;10453724;28;20439;-62
2022/08/30 04:36:48;;;;;;;4.25;0.47;;;14.00;99.90;;;;;;10450422;28;20522;-61
2022/08/30 04:41:50;;;;;;;1.70;0.50;;;14.00;99.90;;;;;;10456656;28;20063;-61
2022/08/30 04:46:52;;;;;;;4.28;0.60;;;14.00;99.90;;;;;;10455880;28;20064;-64
2022/08/30 04:51:54;;;;;;;3.30;0.60;;;14.00;99.90;;;;;;10448561;28;20049;-64
2022/08/30 04:56:56;;;;;;;1.48;0.47;;;14.00;99.90;;;;;;10460536;28;20059;-65
2022/08/30 05:01:58;;;;;;;2.83;0.50;;;14.00;99.90;;;;;;10432807;28;20076;-64
2022/08/30 05:07:00;;;;;;;4.53;0.50;;;14.00;99.90;;;;;;10454545;28;20132;-64
2022/08/30 05:12:02;;;;;;;3.90;0.52;;;14.00;99.90;;;;;;10452185;28;20044;-64
2022/08/30 05:17:04;;;;;;;3.25;0.60;;;14.00;99.90;;;;;;10450171;28;20119;-63
2022/08/30 05:22:06;;;;;;;2.67;0.70;;;14.10;99.90;;;;;;10448463;28;20138;-63
2022/08/30 05:27:08;;;;;;;5.95;0.70;;;14.10;99.90;;;;;;10453622;28;20048;-64
2022/08/30 05:32:10;;;;;;;4.75;0.50;;;14.20;99.90;;;;;;10456916;28;20053;-64
2022/08/30 05:37:11;;;;;;;3.30;0.50;;;14.30;99.90;;;;;;10455864;28;20056;-63
2022/08/30 05:42:13;;;;;;;6.63;0.52;;;14.30;99.90;;;;;;10435570;28;20143;-64
2022/08/30 05:47:18;;;;;;;2.50;0.70;;;14.50;99.90;;;;;;10454432;28;20071;-63
2022/08/30 05:52:20;;;;;;;1.20;0.47;;;14.60;99.90;;;;;;10446858;28;20049;-64
2022/08/30 05:57:21;;;;;;;3.90;0.65;;;14.80;99.90;;;;;;10445366;28;20045;-64
2022/08/30 06:02:23;;;;;;;2.10;0.98;;;15.10;99.90;;;;;;10451108;28;20576;-64
2022/08/30 06:07:25;;;;;;;2.45;0.57;;;15.30;99.90;;;;;;10453869;28;20067;-64
2022/08/30 06:12:27;;;;;;;3.05;0.70;;;15.40;99.90;;;;;;10454315;28;20109;-64
2022/08/30 06:17:28;;;;;;;1.63;0.60;;;15.70;99.90;;;;;;10430067;28;20052;-64
2022/08/30 06:22:30;;;;;;;1.52;0.60;;;16.00;99.90;;;;;;10444732;28;20565;-64
2022/08/30 06:27:32;;;;;;;4.28;0.60;;;16.20;99.90;;;;;;10452912;28;20064;-63
2022/08/30 06:32:34;;;;;;;3.88;0.55;;;16.50;99.90;;;;;;10449857;28;20098;-63
2022/08/30 06:37:36;;;;;;;4.18;0.60;;;16.80;99.90;;;;;;10452839;28;20040;-64
2022/08/30 06:42:37;;;;;;;1.75;0.40;;;17.00;99.90;;;;;;10449575;28;20056;-64
2022/08/30 06:47:39;;;;;;;1.80;0.70;;;17.30;99.90;;;;;;10450380;28;20052;-64
2022/08/30 06:52:43;;;;;;;2.03;0.45;;;17.50;99.90;;;;;;10432303;28;20111;-63
2022/08/30 06:57:45;;;;;;;5.20;0.65;;;17.70;99.90;;;;;;10450893;28;20556;-64
2022/08/30 07:02:47;;;;;;;3.03;0.50;;;17.90;99.90;;;;;;10449217;28;20045;-63
2022/08/30 07:07:53;;;;;;;4.07;0.77;;;18.10;99.90;;;;;;10442513;28;20137;-63
2022/08/30 07:12:54;;;;;;;1.17;0.50;;;18.30;99.90;;;;;;10450027;28;20394;-63
2022/08/30 07:23:16;;;;;;;1.80;0.50;;;18.70;99.90;;;;;;10452399;28;20056;-64
2022/08/30 07:28:18;;;;;;;3.33;0.55;;;18.80;99.90;;;;;;10445225;28;20051;-63
2022/08/30 07:33:20;;;;;;;2.13;0.68;;;19.00;99.90;;;;;;10450778;28;20060;-64
2022/08/30 07:38:21;;;;;;;2.75;0.57;;;19.30;99.90;;;;;;10448971;28;20049;-64
2022/08/30 07:43:24;;;;;;;2.35;0.47;;;19.50;99.90;;;;;;10449694;28;20644;-64
2022/08/30 07:48:25;;;;;;;1.73;0.75;;;19.70;99.90;;;;;;10444482;28;20136;-63
2022/08/30 07:53:27;;;;;;;1.83;0.80;;;19.90;99.90;;;;;;10450552;28;20052;-64
2022/08/30 07:58:29;;;;;;;2.33;0.50;;;20.10;99.90;;;;;;10454534;28;20102;-64
2022/08/30 08:03:30;;;;;;;5.25;0.77;;;20.20;99.90;;;;;;10443644;28;20056;-64
2022/08/30 08:08:33;;;;;;;7.50;0.70;;;20.40;99.90;;;;;;10452617;28;20048;-64
2022/08/30 08:13:35;;;;;;;1.77;0.40;;;20.60;99.90;;;;;;10451987;28;20052;-64
2022/08/30 08:18:52;;;;;;;5.13;0.60;;;20.90;99.60;;;;;;10452237;28;20525;-64
2022/08/30 08:23:54;;;;;;;3.33;0.47;;;21.20;98.50;;;;;;10455815;28;20147;-64
2022/08/30 08:28:56;;;;;;;1.88;0.30;;;21.40;97.50;;;;;;10455178;28;20045;-65
2022/08/30 08:33:59;;;;;;;5.05;0.40;;;21.60;96.40;;;;;;10461629;28;20045;-65
2022/08/30 08:39:03;;;;;;;2.53;0.57;;;21.80;96.10;;;;;;10459837;28;20047;-65
2022/08/30 08:44:13;;;;;;;4.38;0.52;;;21.90;96.00;;;;;;10462947;28;20048;-64
2022/08/30 08:49:15;;;;;;;2.13;0.40;;;22.10;95.60;;;;;;10455926;28;20056;-64
2022/08/30 08:54:41;;;;;;;1.58;0.68;;;22.20;95.10;;;;;;10444797;28;20106;-64
2022/08/30 08:59:43;;;;;;;5.57;0.82;;;22.50;94.50;;;;;;10444434;28;20041;-65
2022/08/30 09:04:46;;;;;;;2.20;0.50;;;22.80;93.70;;;;;;10457862;28;20523;-65
2022/08/30 09:09:47;;;;;;;4.22;0.40;;;23.10;93.30;;;;;;10454465;28;20044;-64
2022/08/30 09:15:05;;;;;;;3.40;0.60;;;23.30;93.20;;;;;;10454696;28;20721;-61
2022/08/30 09:20:08;;;;;;;3.15;0.50;;;23.60;92.80;;;;;;10449830;28;20044;-65
2022/08/30 09:25:12;;;;;;;2.40;0.50;;;23.80;92.80;;;;;;10453961;28;20114;-63
2022/08/30 09:30:35;;;;;;;2.42;0.40;;;24.00;92.30;;;;;;10453829;28;20048;-65
2022/08/30 09:35:39;;;;;;;6.35;0.68;;;24.20;91.70;;;;;;10439347;28;20059;-65
2022/08/30 09:40:45;;;;;;;2.25;0.40;;;24.20;91.50;;;;;;10460401;28;20041;-65
2022/08/30 09:46:04;;;;;;;4.32;0.60;;;24.30;91.60;;;;;;10447240;28;20043;-65
2022/08/30 09:51:12;;;;;;;3.10;0.50;;;24.50;90.70;;;;;;10455078;28;20068;-65
2022/08/30 09:56:26;;;;;;;3.78;0.63;;;24.60;90.70;;;;;;10453588;28;20060;-63
2022/08/30 10:02:03;;;;;;;13.45;0.50;;;24.70;90.50;;;;;;10447135;28;20049;-65
2022/08/30 10:07:20;;;;;;;7.80;0.80;;;24.80;90.30;;;;;;10409672;28;20146;-65
2022/08/30 10:12:47;;;;;;;2.38;0.60;;;24.90;90.20;;;;;;10449737;28;20094;-63
2022/08/30 10:18:04;;;;;;;4.82;0.50;;;25.20;88.00;;;;;;10444739;28;20045;-63
2022/08/30 10:23:18;;;;;;;2.47;0.47;;;25.30;87.50;;;;;;10453904;28;20060;-64
2022/08/30 10:28:39;;;;;;;4.57;0.47;;;25.50;85.10;;;;;;10452159;28;20056;-63
2022/08/30 10:33:46;;;;;;;1.45;0.40;;;25.70;85.50;;;;;;10451890;28;20053;-63
2022/08/30 10:38:51;;;;;;;2.80;0.40;;;26.10;83.50;;;;;;10452788;28;20103;-63
2022/08/30 10:44:06;;;;;;;2.43;0.30;;;26.40;80.10;;;;;;10450475;28;20059;-63
2022/08/30 10:49:16;;;;;;;2.30;0.50;;;26.80;78.60;;;;;;10443131;28;20063;-64
2022/08/30 10:54:31;;;;;;;2.15;0.47;;;27.10;79.10;;;;;;10437811;28;20052;-64
2022/08/30 10:59:37;;;;;;;2.00;0.37;;;27.20;77.10;;;;;;10442259;28;20060;-64
2022/08/30 11:04:45;;;;;;;2.83;0.50;;;27.40;75.90;;;;;;10440596;28;20506;-64
2022/08/30 11:10:18;;;;;;;2.35;0.40;;;27.70;76.10;;;;;;10451718;28;20049;-64
2022/08/30 11:15:29;;;;;;;1.23;0.40;;;27.80;75.70;;;;;;10442858;28;20098;-64
2022/08/30 11:20:36;;;;;;;1.17;0.30;;;27.80;74.40;;;;;;10450171;28;20041;-64
2022/08/30 11:25:54;;;;;;;2.90;0.50;;;27.90;72.80;;;;;;10440901;28;20060;-64
2022/08/30 11:31:21;;;;;;;3.15;0.50;;;28.00;72.10;;;;;;10453755;28;20148;-64
2022/08/30 11:36:31;;;;;;;1.10;0.40;;;28.30;71.80;;;;;;10444624;28;20775;-64
2022/08/30 11:41:43;;;;;;;1.85;0.32;;;28.40;72.60;;;;;;10451513;28;20048;-64
2022/08/30 11:46:52;;;;;;;5.60;0.55;;;28.60;71.00;;;;;;10448586;28;20099;-63
2022/08/30 11:52:19;;;;;;;1.75;0.40;;;28.80;71.90;;;;;;10452013;28;20503;-64
2022/08/30 11:57:44;;;;;;;3.60;0.50;;;28.90;69.80;;;;;;10455458;28;20053;-64
2022/08/30 12:03:00;;;;;;;1.35;0.50;;;29.00;70.30;;;;;;10458817;28;20044;-64
2022/08/30 12:08:33;;;;;;;1.15;0.75;;;29.00;69.20;;;;;;10461183;28;20047;-64
2022/08/30 12:13:36;;;;;;;3.28;0.80;;;29.30;68.30;;;;;;10464835;28;20040;-64
2022/08/30 12:18:58;;;;;;;1.67;0.50;;;29.30;68.10;;;;;;10457574;28;20095;-64
2022/08/30 12:24:40;;;;;;;5.28;0.60;;;29.40;69.40;;;;;;10450590;28;20154;-64
2022/08/30 12:29:58;;;;;;;1.17;0.50;;;29.60;67.70;;;;;;10445825;28;20049;-64
2022/08/30 12:35:03;;;;;;;2.22;0.60;;;29.50;67.90;;;;;;10457541;28;20107;-64
2022/08/30 12:40:13;;;;;;;0.65;0.43;;;29.70;68.20;;;;;;10460811;28;20568;-64
2022/08/30 12:45:19;;;;;;;5.50;0.40;;;30.00;68.00;;;;;;10458329;28;20104;-64
2022/08/30 12:50:34;;;;;;;0.60;0.32;;;30.10;67.20;;;;;;10451323;28;20119;-64
2022/08/30 12:55:55;;;;;;;4.53;0.85;;;30.40;66.60;;;;;;10456811;28;20045;-64
2022/08/30 13:01:17;;;;;;;0.77;0.30;;;30.70;67.40;;;;;;10445298;28;20402;-64
2022/08/30 13:06:36;;;;;;;1.65;0.47;;;31.00;65.80;;;;;;10453619;28;20045;-64
2022/08/30 13:11:38;;;;;;;1.05;0.40;;;31.20;63.40;;;;;;10429864;28;20057;-64
2022/08/30 13:16:40;;;;;;;3.75;0.47;;;31.40;63.80;;;;;;10451217;28;20466;-64
2022/08/30 13:21:56;;;;;;;1.77;0.57;;;31.20;64.20;;;;;;10455480;28;20495;-64
2022/08/30 13:27:05;;;;;;;1.23;0.50;;;31.70;62.60;;;;;;10449832;28;20426;-64
2022/08/30 13:32:06;;;;;;;3.53;0.50;;;31.90;62.90;;;;;;10455077;28;20056;-64
2022/08/30 13:37:17;;;;;;;2.85;0.50;;;32.20;62.50;;;;;;10447230;28;20047;-64
2022/08/30 13:42:41;;;;;;;2.05;0.40;;;32.40;62.10;;;;;;10450503;28;20125;-62
2022/08/30 13:47:45;;;;;;;1.00;0.45;;;32.00;60.40;;;;;;10453838;28;20071;-62
2022/08/30 13:52:47;;;;;;;2.55;0.50;;;32.20;60.60;;;;;;10452884;28;20045;-62
2022/08/30 13:57:49;;;;;;;1.90;0.55;;;32.50;61.10;;;;;;10450298;28;20543;-62
2022/08/30 14:02:55;;;;;;;2.50;0.40;;;32.40;59.70;;;;;;10444730;28;20048;-62
2022/08/30 14:08:01;;;;;;;3.42;0.50;;;32.50;59.20;;;;;;10453848;28;20044;-62
2022/08/30 14:13:04;;;;;;;0.98;0.40;;;32.60;59.50;;;;;;10448768;28;20442;-62
2022/08/30 14:18:18;;;;;;;2.97;0.50;;;32.60;58.20;;;;;;10454711;28;20044;-61
2022/08/30 14:23:24;;;;;;;2.55;0.60;;;32.70;58.30;;;;;;10452758;28;20050;-63
2022/08/30 14:28:28;;;;;;;1.25;0.50;;;32.80;58.20;;;;;;10450883;28;20488;-61
2022/08/30 14:33:31;;;;;;;1.48;0.50;;;33.10;58.10;;;;;;10450218;28;20044;-59
2022/08/30 14:38:32;;;;;;;3.10;0.50;;;33.30;58.50;;;;;;10455659;28;20051;-59
2022/08/30 14:43:36;;;;;;;1.20;0.60;;;33.10;56.70;;;;;;10453854;28;20044;-60
2022/08/30 14:48:40;;;;;;;5.60;0.60;;;33.30;57.30;;;;;;10449155;28;20057;-59
2022/08/30 14:53:44;;;;;;;4.22;0.60;;;33.30;55.90;;;;;;10454461;28;20063;-60
2022/08/30 14:58:51;;;;;;;1.60;0.47;;;33.40;56.90;;;;;;10445592;28;20117;-60
2022/08/30 15:03:53;;;;;;;0.80;0.40;;;33.20;57.60;;;;;;10438394;28;20057;-59
2022/08/30 15:08:56;;;;;;;2.08;0.40;;;32.70;55.70;;;;;;10445261;28;20056;-60
2022/08/30 15:13:59;;;;;;;2.05;0.50;;;32.80;55.70;;;;;;10458432;28;20059;-59
2022/08/30 15:19:04;;;;;;;0.68;0.30;;;32.40;55.90;;;;;;10454481;28;20513;-59
2022/08/30 15:24:08;;;;;;;1.85;0.40;;;32.70;57.40;;;;;;10452410;28;20438;-60
2022/08/30 15:29:11;;;;;;;2.60;0.40;;;32.60;58.30;;;;;;10451786;28;20048;-60
2022/08/30 15:34:15;;;;;;;1.88;0.45;;;32.50;57.80;;;;;;10455800;28;20609;-60
2022/08/30 15:39:18;;;;;;;1.45;0.50;;;32.50;57.70;;;;;;10460172;28;20045;-60
2022/08/30 15:44:19;;;;;;;2.13;0.50;;;32.50;57.80;;;;;;10453005;28;20044;-60
2022/08/30 15:49:22;;;;;;;6.65;0.60;;;32.20;58.20;;;;;;10453777;28;20040;-60
2022/08/30 15:54:24;;;;;;;2.63;0.50;;;32.00;57.50;;;;;;10438644;28;20060;-59
2022/08/30 15:59:28;;;;;;;0.63;0.40;;;31.90;57.50;;;;;;10441617;28;20042;-60
2022/08/30 16:04:30;;;;;;;3.17;0.65;;;31.70;57.60;;;;;;10445047;28;20503;-59
2022/08/30 16:09:33;;;;;;;0.80;0.50;;;31.50;57.70;;;;;;10457559;28;20130;-59
2022/08/30 16:14:35;;;;;;;0.80;0.40;;;31.50;57.70;;;;;;10456635;28;20049;-59
2022/08/30 16:19:37;;;;;;;3.03;0.47;;;31.20;57.00;;;;;;10461165;28;20048;-59
2022/08/30 16:24:38;;;;;;;3.47;0.50;;;31.00;57.50;;;;;;10455649;28;20434;-59
2022/08/30 16:29:42;;;;;;;4.05;0.60;;;30.90;58.10;;;;;;10466930;28;20509;-59
2022/08/30 16:34:43;;;;;;;0.47;0.40;;;30.70;59.20;;;;;;10458705;28;20045;-60
2022/08/30 16:39:45;;;;;;;3.70;0.70;;;30.40;59.50;;;;;;10454236;28;20045;-59
2022/08/30 16:44:48;;;;;;;0.85;0.60;;;30.20;59.80;;;;;;10456086;28;20140;-59
2022/08/30 16:49:50;;;;;;;2.15;0.70;;;30.10;60.00;;;;;;10453949;28;20053;-60
2022/08/30 16:54:52;;;;;;;4.07;0.52;;;30.00;60.10;;;;;;10456009;28;20056;-60
2022/08/30 16:59:54;;;;;;;3.10;0.40;;;30.00;59.60;;;;;;10457278;28;20548;-60
2022/08/30 17:04:56;;;;;;;2.10;0.40;;;30.00;60.30;;;;;;10456708;28;20174;-59
2022/08/30 17:09:59;;;;;;;1.13;0.60;;;29.80;61.00;;;;;;10453786;28;20444;-60
2022/08/30 17:15:00;;;;;;;6.30;0.77;;;29.70;60.90;;;;;;10460630;28;20045;-59
2022/08/30 17:20:08;;;;;;;3.38;0.50;;;29.60;61.00;;;;;;10434376;28;20131;-60
2022/08/30 17:25:09;;;;;;;3.15;0.80;;;29.30;61.40;;;;;;10446997;28;20052;-60
2022/08/30 17:30:12;;;;;;;0.95;0.60;;;29.20;62.20;;;;;;10458865;28;20045;-59
2022/08/30 17:35:14;;;;;;;3.13;0.65;;;29.00;62.70;;;;;;10444130;28;20095;-60
2022/08/30 17:40:18;;;;;;;1.48;0.40;;;28.70;63.00;;;;;;10456606;28;20052;-59
2022/08/30 17:45:20;;;;;;;1.83;0.63;;;28.40;63.20;;;;;;10455377;28;20391;-60
2022/08/30 17:50:22;;;;;;;3.53;0.50;;;28.20;63.90;;;;;;10439999;28;20491;-60
2022/08/30 17:55:28;;;;;;;2.60;0.60;;;27.90;64.20;;;;;;10453035;28;20048;-60
2022/08/30 18:00:31;;;;;;;2.20;0.55;;;27.60;64.60;;;;;;10445027;28;20383;-59
2022/08/30 18:05:33;;;;;;;2.38;0.93;;;27.30;65.30;;;;;;10421104;28;20105;-60
2022/08/30 18:10:39;;;;;;;5.70;0.60;;;27.00;66.20;;;;;;10438306;28;20625;-60
2022/08/30 18:15:40;;;;;;;9.18;1.05;;;26.70;67.00;;;;;;10425504;28;20049;-60
2022/08/30 18:20:45;;;;;;;3.83;0.50;;;26.40;67.80;;;;;;10452641;28;20575;-59
2022/08/30 18:26:00;;;;;;;3.50;0.60;;;26.20;68.40;;;;;;10442314;28;20064;-60
2022/08/30 18:31:02;;;;;;;2.72;0.70;;;25.90;68.80;;;;;;10451282;28;20553;-60
2022/08/30 18:36:05;;;;;;;5.25;1.20;;;25.70;69.10;;;;;;10457923;28;20461;-59
2022/08/30 18:41:09;;;;;;;1.15;0.45;;;25.50;69.70;;;;;;10446108;28;20114;-60
2022/08/30 18:46:13;;;;;;;2.22;0.60;;;25.30;70.20;;;;;;10452022;28;20057;-59
2022/08/30 18:51:20;;;;;;;3.10;0.55;;;25.20;70.80;;;;;;10452526;28;20049;-59
2022/08/30 18:56:22;;;;;;;1.33;0.50;;;25.00;71.60;;;;;;10453343;28;20077;-59
2022/08/30 19:01:29;;;;;;;2.28;0.50;;;24.80;72.10;;;;;;10438832;28;20059;-58
2022/08/30 19:06:31;;;;;;;3.90;0.43;;;24.60;72.60;;;;;;10431773;28;20044;-59
2022/08/30 19:11:32;;;;;;;2.58;0.60;;;24.40;73.20;;;;;;10435062;28;20036;-59
2022/08/30 19:16:35;;;;;;;4.70;0.68;;;24.20;73.80;;;;;;10452412;28;20453;-59
2022/08/30 19:21:37;;;;;;;1.42;0.60;;;24.10;74.20;;;;;;10449958;28;20049;-60
2022/08/30 19:26:41;;;;;;;3.28;0.57;;;23.90;74.70;;;;;;10452800;28;20049;-60
2022/08/30 19:31:47;;;;;;;2.53;0.47;;;23.80;75.20;;;;;;10455764;28;20107;-59
2022/08/30 19:36:48;;;;;;;3.88;0.65;;;23.70;75.70;;;;;;10444843;28;20127;-59
2022/08/30 19:41:51;;;;;;;1.60;0.68;;;23.50;75.90;;;;;;10447017;28;20041;-60
2022/08/30 19:46:52;;;;;;;1.80;0.52;;;23.40;76.40;;;;;;10451007;28;20052;-59
2022/08/30 19:51:56;;;;;;;5.47;0.90;;;23.30;76.80;;;;;;10454969;28;20538;-59
2022/08/30 19:56:58;;;;;;;2.20;0.73;;;23.10;77.20;;;;;;10450105;28;20045;-59
2022/08/30 20:02:01;;;;;;;2.05;0.80;;;23.00;77.50;;;;;;10437963;28;20052;-60
2022/08/30 20:07:03;;;;;;;1.52;0.50;;;22.80;77.80;;;;;;10450273;28;20074;-59
2022/08/30 20:12:08;;;;;;;4.35;0.60;;;22.80;78.30;;;;;;10442115;28;20063;-60
2022/08/30 20:17:10;;;;;;;3.05;0.80;;;22.70;78.60;;;;;;10453607;28;20482;-60
2022/08/30 20:22:12;;;;;;;2.40;0.63;;;22.50;79.20;;;;;;10448147;28;20144;-64
2022/08/30 20:27:16;;;;;;;1.33;0.60;;;22.40;79.70;;;;;;10456921;28;20056;-64
2022/08/30 20:32:17;;;;;;;1.15;0.50;;;22.40;80.10;;;;;;10444709;28;20501;-64
2022/08/30 20:37:22;;;;;;;7.22;1.15;;;22.30;80.50;;;;;;10454367;28;20513;-64
2022/08/30 20:42:26;;;;;;;7.35;1.05;;;22.20;80.80;;;;;;10462142;28;20464;-64
2022/08/30 20:47:28;;;;;;;2.63;0.47;;;22.10;81.10;;;;;;10449841;28;20516;-64
2022/08/30 20:52:30;;;;;;;5.82;0.70;;;22.10;81.40;;;;;;10455276;28;20048;-63
2022/08/30 20:57:32;;;;;;;5.25;0.80;;;22.10;81.70;;;;;;10443680;28;20103;-64
2022/08/30 21:02:34;;;;;;;2.83;0.55;;;22.10;82.20;;;;;;10439255;28;20049;-64
2022/08/30 21:07:38;;;;;;;2.90;0.63;;;22.00;83.10;;;;;;10446077;28;20041;-64
2022/08/30 21:12:41;;;;;;;1.88;0.63;;;22.00;82.80;;;;;;10451786;28;20596;-64
2022/08/30 21:17:45;;;;;;;2.05;0.70;;;21.90;83.00;;;;;;10452457;28;20052;-65
2022/08/30 21:22:47;;;;;;;1.05;0.52;;;21.80;82.90;;;;;;10455214;28;20055;-65
2022/08/30 21:27:49;;;;;;;2.80;0.60;;;21.70;83.20;;;;;;10459837;28;20048;-64
2022/08/30 21:32:51;;;;;;;2.05;0.80;;;21.70;83.60;;;;;;10456182;28;20495;-63
2022/08/30 21:37:53;;;;;;;3.75;0.80;;;21.60;84.00;;;;;;10447807;28;20051;-64
2022/08/30 21:42:54;;;;;;;1.60;0.80;;;21.60;84.30;;;;;;10457199;28;20054;-63
2022/08/30 21:47:56;;;;;;;1.30;0.70;;;21.50;84.80;;;;;;10454681;28;20918;-63
2022/08/30 21:52:58;;;;;;;3.20;0.50;;;21.50;84.70;;;;;;10459722;28;20057;-64
2022/08/30 21:58:00;;;;;;;1.15;0.50;;;21.40;84.90;;;;;;10454634;28;20067;-63
2022/08/30 22:03:04;;;;;;;1.98;0.60;;;21.40;85.30;;;;;;10443155;28;20649;-64
2022/08/30 22:08:06;;;;;;;1.42;0.60;;;21.40;86.00;;;;;;10444498;28;20045;-65
2022/08/30 22:13:11;;;;;;;2.42;0.90;;;21.30;86.00;;;;;;10451653;28;20048;-63
2022/08/30 22:18:14;;;;;;;2.58;0.85;;;21.20;86.50;;;;;;10437314;28;20049;-63
2022/08/30 22:23:16;;;;;;;1.20;0.50;;;21.20;86.80;;;;;;10433290;28;20072;-64
2022/08/30 22:28:21;;;;;;;1.35;0.50;;;21.10;87.00;;;;;;10456090;28;20475;-63
2022/08/30 22:33:22;;;;;;;0.70;0.47;;;21.10;87.00;;;;;;10458105;28;20045;-62
2022/08/30 22:38:24;;;;;;;1.30;0.60;;;21.10;87.70;;;;;;10435429;28;20040;-64
2022/08/30 22:43:26;;;;;;;3.75;0.70;;;20.90;87.70;;;;;;10450930;28;20060;-62
2022/08/30 22:48:28;;;;;;;2.47;0.50;;;20.90;88.10;;;;;;10453005;28;20048;-63
2022/08/30 22:53:30;;;;;;;3.90;0.77;;;20.90;88.60;;;;;;10454869;28;20130;-62
2022/08/30 22:58:32;;;;;;;2.75;0.90;;;20.90;88.90;;;;;;10447572;28;20052;-62
2022/08/30 23:03:34;;;;;;;1.20;0.70;;;20.90;89.00;;;;;;10439708;28;20113;-63
2022/08/30 23:08:36;;;;;;;3.40;0.60;;;20.80;89.40;;;;;;10454896;28;20052;-63
2022/08/30 23:13:38;;;;;;;1.40;0.63;;;20.80;89.60;;;;;;10445603;28;20056;-63
2022/08/30 23:18:41;;;;;;;2.25;0.60;;;20.80;89.80;;;;;;10450257;28;20048;-62
